createdAt,value
2018-07-17T00:00:13.019Z,23.00
2018-07-17T00:00:44.256Z,23.00
2018-07-17T00:01:15.465Z,23.00
2018-07-17T00:01:46.686Z,22.99
2018-07-17T00:02:17.860Z,22.99
2018-07-17T00:02:49.040Z,22.98
2018-07-17T00:03:20.272Z,22.97
2018-07-17T00:03:51.494Z,22.96
2018-07-17T00:04:22.678Z,22.97
2018-07-17T00:04:53.852Z,22.95
2018-07-17T00:05:25.155Z,22.94
2018-07-17T00:05:56.352Z,22.92
2018-07-17T00:06:27.531Z,22.89
2018-07-17T00:06:58.711Z,22.88
2018-07-17T00:07:29.956Z,22.87
2018-07-17T00:08:01.147Z,22.83
2018-07-17T00:08:32.358Z,22.81
2018-07-17T00:09:03.538Z,22.78
2018-07-17T00:09:34.847Z,22.78
2018-07-17T00:10:06.026Z,22.78
2018-07-17T00:10:37.360Z,22.78
2018-07-17T00:11:08.596Z,22.78
2018-07-17T00:11:39.824Z,22.80
2018-07-17T00:12:10.998Z,22.83
2018-07-17T00:12:42.261Z,22.86
2018-07-17T00:13:13.405Z,22.88
2018-07-17T00:13:44.637Z,22.91
2018-07-17T00:14:15.837Z,22.92
2018-07-17T00:14:47.107Z,22.94
2018-07-17T00:15:18.288Z,22.95
2018-07-17T00:15:49.467Z,22.95
2018-07-17T00:16:20.644Z,22.92
2018-07-17T00:16:51.817Z,22.92
2018-07-17T00:17:23.037Z,22.94
2018-07-17T00:17:54.273Z,22.94
2018-07-17T00:18:25.485Z,22.94
2018-07-17T00:18:56.677Z,22.94
2018-07-17T00:19:27.854Z,22.94
2018-07-17T00:19:59.081Z,22.92
2018-07-17T00:20:30.269Z,22.90
2018-07-17T00:21:01.485Z,22.87
2018-07-17T00:21:32.708Z,22.83
2018-07-17T00:22:03.875Z,22.82
2018-07-17T00:22:35.049Z,22.81
2018-07-17T00:23:06.228Z,22.81
2018-07-17T00:23:37.395Z,22.77
2018-07-17T00:24:08.570Z,22.74
2018-07-17T00:24:39.805Z,22.73
2018-07-17T00:25:11.080Z,22.72
2018-07-17T00:25:42.321Z,22.71
2018-07-17T00:26:13.553Z,22.69
2018-07-17T00:26:44.787Z,22.70
2018-07-17T00:27:16.123Z,22.70
2018-07-17T00:27:47.306Z,22.69
2018-07-17T00:28:18.484Z,22.67
2018-07-17T00:28:49.929Z,22.64
2018-07-17T00:29:21.104Z,22.65
2018-07-17T00:29:52.416Z,22.65
2018-07-17T00:30:23.737Z,22.61
2018-07-17T00:30:54.961Z,22.55
2018-07-17T00:31:26.889Z,22.49
2018-07-17T00:31:58.157Z,22.42
2018-07-17T00:32:29.395Z,22.39
2018-07-17T00:33:00.586Z,22.39
2018-07-17T00:33:31.801Z,22.40
2018-07-17T00:34:03.012Z,22.44
2018-07-17T00:34:34.184Z,22.44
2018-07-17T00:35:05.350Z,22.45
2018-07-17T00:35:36.541Z,22.47
2018-07-17T00:36:07.761Z,22.46
2018-07-17T00:36:38.939Z,22.45
2018-07-17T00:37:10.166Z,22.45
2018-07-17T00:37:41.386Z,22.42
2018-07-17T00:38:12.625Z,22.36
2018-07-17T00:38:43.865Z,22.36
2018-07-17T00:39:15.049Z,22.33
2018-07-17T00:39:46.261Z,22.26
2018-07-17T00:40:17.477Z,22.24
2018-07-17T00:40:48.652Z,22.19
2018-07-17T00:41:26.076Z,22.16
2018-07-17T00:41:57.815Z,22.16
2018-07-17T00:42:29.048Z,22.17
2018-07-17T00:43:00.312Z,22.18
2018-07-17T00:43:31.541Z,22.16
2018-07-17T00:44:02.779Z,22.16
2018-07-17T00:44:40.031Z,22.15
2018-07-17T00:45:11.280Z,22.16
2018-07-17T00:45:42.461Z,22.18
2018-07-17T00:46:13.643Z,22.20
2018-07-17T00:46:44.814Z,22.23
2018-07-17T00:47:15.995Z,22.28
2018-07-17T00:47:47.168Z,22.30
2018-07-17T00:48:18.350Z,22.31
2018-07-17T00:48:49.520Z,22.33
2018-07-17T00:49:20.704Z,22.36
2018-07-17T00:49:51.926Z,22.36
2018-07-17T00:50:23.148Z,22.39
2018-07-17T00:50:54.319Z,22.39
2018-07-17T00:51:25.540Z,22.38
2018-07-17T00:51:56.718Z,22.40
2018-07-17T00:52:27.943Z,22.39
2018-07-17T00:52:59.161Z,22.35
2018-07-17T00:53:30.401Z,22.31
2018-07-17T00:54:01.591Z,22.19
2018-07-17T00:54:32.813Z,22.09
2018-07-17T00:55:04.011Z,22.07
2018-07-17T00:55:35.286Z,22.06
2018-07-17T00:56:06.486Z,22.08
2018-07-17T00:56:37.719Z,22.07
2018-07-17T00:57:08.944Z,22.04
2018-07-17T00:57:40.124Z,22.03
2018-07-17T00:58:11.288Z,21.97
2018-07-17T00:58:42.529Z,21.99
2018-07-17T00:59:13.765Z,21.95
2018-07-17T00:59:45.008Z,21.99
2018-07-17T01:00:16.193Z,21.97
2018-07-17T01:00:47.503Z,21.94
2018-07-17T01:01:18.689Z,21.85
2018-07-17T01:01:49.976Z,21.82
2018-07-17T01:02:21.165Z,21.75
2018-07-17T01:02:52.340Z,21.71
2018-07-17T01:03:23.514Z,21.72
2018-07-17T01:03:54.747Z,21.71
2018-07-17T01:04:25.985Z,21.70
2018-07-17T01:04:57.217Z,21.67
2018-07-17T01:05:28.397Z,21.62
2018-07-17T01:05:59.620Z,21.60
2018-07-17T01:06:30.803Z,21.55
2018-07-17T01:07:02.020Z,21.53
2018-07-17T01:07:33.237Z,21.52
2018-07-17T01:08:04.417Z,21.50
2018-07-17T01:08:35.596Z,21.52
2018-07-17T01:09:07.006Z,21.49
2018-07-17T01:09:38.207Z,21.41
2018-07-17T01:10:09.950Z,21.32
2018-07-17T01:10:41.197Z,21.31
2018-07-17T01:11:12.400Z,21.27
2018-07-17T01:11:43.577Z,21.22
2018-07-17T01:12:14.812Z,21.25
2018-07-17T01:12:46.002Z,21.27
2018-07-17T01:13:17.239Z,21.28
2018-07-17T01:13:48.521Z,21.26
2018-07-17T01:14:19.705Z,21.24
2018-07-17T01:14:50.869Z,21.22
2018-07-17T01:15:22.053Z,21.23
2018-07-17T01:15:53.236Z,21.21
2018-07-17T01:16:24.414Z,21.21
2018-07-17T01:16:55.596Z,21.19
2018-07-17T01:17:26.768Z,21.20
2018-07-17T01:17:58.133Z,21.20
2018-07-17T01:18:29.323Z,21.21
2018-07-17T01:19:00.536Z,21.22
2018-07-17T01:19:31.717Z,21.24
2018-07-17T01:20:02.897Z,21.23
2018-07-17T01:20:34.130Z,21.25
2018-07-17T01:21:05.326Z,21.26
2018-07-17T01:21:36.573Z,21.27
2018-07-17T01:22:07.761Z,21.28
2018-07-17T01:22:38.934Z,21.29
2018-07-17T01:23:10.129Z,21.31
2018-07-17T01:23:41.514Z,21.30
2018-07-17T01:24:12.757Z,21.32
2018-07-17T01:24:43.945Z,21.32
2018-07-17T01:25:15.172Z,21.32
2018-07-17T01:25:46.394Z,21.31
2018-07-17T01:26:17.589Z,21.29
2018-07-17T01:26:48.773Z,21.27
2018-07-17T01:27:19.952Z,21.27
2018-07-17T01:27:51.135Z,21.26
2018-07-17T01:28:22.304Z,21.25
2018-07-17T01:28:53.533Z,21.25
2018-07-17T01:29:24.800Z,21.25
2018-07-17T01:29:55.990Z,21.25
2018-07-17T01:30:27.221Z,21.23
2018-07-17T01:30:58.405Z,21.23
2018-07-17T01:31:29.583Z,21.24
2018-07-17T01:32:00.780Z,21.25
2018-07-17T01:32:32.004Z,21.24
2018-07-17T01:33:03.188Z,21.24
2018-07-17T01:33:34.412Z,21.23
2018-07-17T01:34:05.604Z,21.24
2018-07-17T01:34:36.972Z,21.24
2018-07-17T01:35:08.216Z,21.22
2018-07-17T01:35:39.403Z,21.20
2018-07-17T01:36:10.625Z,21.21
2018-07-17T01:36:41.817Z,21.21
2018-07-17T01:37:13.042Z,21.24
2018-07-17T01:37:44.220Z,21.27
2018-07-17T01:38:15.437Z,21.29
2018-07-17T01:38:46.625Z,21.28
2018-07-17T01:39:17.869Z,21.28
2018-07-17T01:39:49.095Z,21.28
2018-07-17T01:40:20.281Z,21.28
2018-07-17T01:40:51.518Z,21.28
2018-07-17T01:41:22.758Z,21.31
2018-07-17T01:41:53.944Z,21.35
2018-07-17T01:42:25.111Z,21.37
2018-07-17T01:42:56.406Z,21.41
2018-07-17T01:43:27.610Z,21.42
2018-07-17T01:43:58.807Z,21.42
2018-07-17T01:44:29.985Z,21.42
2018-07-17T01:45:01.198Z,21.42
2018-07-17T01:45:32.424Z,21.40
2018-07-17T01:46:03.607Z,21.40
2018-07-17T01:46:34.787Z,21.41
2018-07-17T01:47:05.980Z,21.42
2018-07-17T01:47:37.200Z,21.44
2018-07-17T01:48:08.368Z,21.45
2018-07-17T01:48:39.648Z,21.43
2018-07-17T01:49:10.827Z,21.42
2018-07-17T01:49:41.999Z,21.41
2018-07-17T01:50:13.206Z,21.42
2018-07-17T01:50:44.371Z,21.40
2018-07-17T01:51:15.555Z,21.42
2018-07-17T01:51:46.860Z,21.40
2018-07-17T01:52:18.112Z,21.38
2018-07-17T01:52:49.358Z,21.34
2018-07-17T01:53:20.544Z,21.33
2018-07-17T01:53:51.731Z,21.32
2018-07-17T01:54:22.903Z,21.32
2018-07-17T01:54:54.177Z,21.33
2018-07-17T01:55:25.356Z,21.32
2018-07-17T01:55:56.529Z,21.32
2018-07-17T01:56:27.701Z,21.32
2018-07-17T01:56:58.874Z,21.31
2018-07-17T01:57:30.082Z,21.30
2018-07-17T01:58:01.313Z,21.30
2018-07-17T01:58:32.512Z,21.29
2018-07-17T01:59:03.687Z,21.30
2018-07-17T01:59:34.878Z,21.30
2018-07-17T02:00:06.052Z,21.31
2018-07-17T02:00:37.267Z,21.32
2018-07-17T02:01:08.501Z,21.32
2018-07-17T02:01:39.737Z,21.33
2018-07-17T02:02:10.920Z,21.32
2018-07-17T02:02:42.091Z,21.32
2018-07-17T02:03:13.312Z,21.29
2018-07-17T02:03:44.541Z,21.30
2018-07-17T02:04:15.948Z,21.30
2018-07-17T02:04:47.138Z,21.31
2018-07-17T02:05:18.389Z,21.29
2018-07-17T02:05:49.576Z,21.28
2018-07-17T02:06:20.751Z,21.27
2018-07-17T02:06:51.924Z,21.25
2018-07-17T02:07:23.102Z,21.24
2018-07-17T02:07:54.373Z,21.22
2018-07-17T02:08:25.556Z,21.22
2018-07-17T02:08:56.788Z,21.21
2018-07-17T02:09:27.982Z,21.18
2018-07-17T02:09:59.169Z,21.13
2018-07-17T02:10:30.409Z,21.11
2018-07-17T02:11:01.634Z,21.09
2018-07-17T02:11:32.816Z,21.06
2018-07-17T02:12:03.981Z,21.02
2018-07-17T02:12:35.232Z,21.00
2018-07-17T02:13:06.404Z,20.99
2018-07-17T02:13:37.629Z,20.98
2018-07-17T02:14:08.850Z,20.97
2018-07-17T02:14:40.076Z,20.97
2018-07-17T02:15:11.305Z,20.97
2018-07-17T02:15:42.660Z,20.99
2018-07-17T02:16:13.885Z,21.00
2018-07-17T02:16:45.118Z,20.99
2018-07-17T02:17:16.296Z,20.99
2018-07-17T02:17:47.536Z,20.99
2018-07-17T02:18:18.721Z,20.98
2018-07-17T02:18:49.968Z,20.98
2018-07-17T02:19:21.190Z,20.97
2018-07-17T02:19:52.368Z,20.96
2018-07-17T02:20:23.597Z,20.95
2018-07-17T02:20:54.777Z,20.96
2018-07-17T02:21:25.951Z,20.98
2018-07-17T02:21:57.179Z,21.01
2018-07-17T02:22:28.364Z,21.07
2018-07-17T02:22:59.669Z,21.09
2018-07-17T02:23:30.857Z,21.13
2018-07-17T02:24:02.121Z,21.13
2018-07-17T02:24:33.390Z,21.17
2018-07-17T02:25:04.583Z,21.17
2018-07-17T02:25:35.761Z,21.18
2018-07-17T02:26:06.982Z,21.20
2018-07-17T02:26:38.173Z,21.18
2018-07-17T02:27:09.392Z,21.17
2018-07-17T02:27:40.572Z,21.17
2018-07-17T02:28:11.756Z,21.16
2018-07-17T02:28:42.936Z,21.16
2018-07-17T02:29:14.112Z,21.17
2018-07-17T02:29:45.344Z,21.20
2018-07-17T02:30:16.528Z,21.23
2018-07-17T02:30:47.753Z,21.25
2018-07-17T02:31:18.936Z,21.29
2018-07-17T02:31:50.327Z,21.29
2018-07-17T02:32:21.615Z,21.29
2018-07-17T02:32:52.872Z,21.29
2018-07-17T02:33:24.203Z,21.28
2018-07-17T02:33:55.441Z,21.30
2018-07-17T02:34:26.702Z,21.32
2018-07-17T02:34:57.879Z,21.33
2018-07-17T02:35:29.131Z,21.38
2018-07-17T02:36:00.365Z,21.39
2018-07-17T02:36:31.548Z,21.42
2018-07-17T02:37:02.805Z,21.42
2018-07-17T02:37:34.037Z,21.42
2018-07-17T02:38:05.220Z,21.45
2018-07-17T02:38:36.490Z,21.46
2018-07-17T02:39:07.685Z,21.48
2018-07-17T02:39:38.909Z,21.47
2018-07-17T02:40:10.141Z,21.46
2018-07-17T02:40:41.369Z,21.49
2018-07-17T02:41:12.549Z,21.50
2018-07-17T02:41:43.779Z,21.50
2018-07-17T02:42:15.121Z,21.50
2018-07-17T02:42:46.354Z,21.52
2018-07-17T02:43:17.613Z,21.57
2018-07-17T02:43:48.853Z,21.61
2018-07-17T02:44:20.054Z,21.61
2018-07-17T02:44:51.517Z,21.56
2018-07-17T02:45:22.706Z,21.51
2018-07-17T02:45:53.989Z,21.50
2018-07-17T02:46:25.179Z,21.52
2018-07-17T02:46:56.358Z,21.52
2018-07-17T02:47:27.545Z,21.55
2018-07-17T02:47:58.741Z,21.57
2018-07-17T02:48:30.317Z,21.61
2018-07-17T02:49:01.513Z,21.63
2018-07-17T02:49:32.680Z,21.66
2018-07-17T02:50:03.948Z,21.68
2018-07-17T02:50:35.140Z,21.69
2018-07-17T02:51:06.362Z,21.70
2018-07-17T02:51:37.554Z,21.69
2018-07-17T02:52:08.743Z,21.71
2018-07-17T02:52:39.961Z,21.70
2018-07-17T02:53:11.144Z,21.65
2018-07-17T02:53:42.404Z,21.62
2018-07-17T02:54:13.595Z,21.56
2018-07-17T02:54:44.765Z,21.54
2018-07-17T02:55:16.041Z,21.52
2018-07-17T02:55:47.228Z,21.52
2018-07-17T02:56:18.451Z,21.54
2018-07-17T02:56:49.628Z,21.55
2018-07-17T02:57:20.849Z,21.58
2018-07-17T02:57:52.985Z,21.61
2018-07-17T02:58:24.156Z,21.60
2018-07-17T02:58:55.326Z,21.61
2018-07-17T02:59:26.509Z,21.58
2018-07-17T02:59:57.682Z,21.55
2018-07-17T03:00:28.905Z,21.54
2018-07-17T03:01:00.158Z,21.55
2018-07-17T03:01:31.342Z,21.55
2018-07-17T03:02:02.516Z,21.56
2018-07-17T03:02:33.692Z,21.56
2018-07-17T03:03:04.948Z,21.55
2018-07-17T03:03:36.128Z,21.55
2018-07-17T03:04:07.344Z,21.54
2018-07-17T03:04:38.516Z,21.53
2018-07-17T03:05:09.798Z,21.52
2018-07-17T03:05:40.984Z,21.53
2018-07-17T03:06:12.209Z,21.52
2018-07-17T03:06:43.454Z,21.51
2018-07-17T03:07:14.702Z,21.49
2018-07-17T03:07:46.049Z,21.47
2018-07-17T03:08:17.228Z,21.43
2018-07-17T03:08:48.457Z,21.39
2018-07-17T03:09:19.637Z,21.37
2018-07-17T03:09:50.815Z,21.36
2018-07-17T03:10:22.036Z,21.28
2018-07-17T03:10:53.224Z,21.23
2018-07-17T03:11:24.518Z,21.22
2018-07-17T03:11:55.744Z,21.22
2018-07-17T03:12:26.969Z,21.22
2018-07-17T03:12:58.201Z,21.21
2018-07-17T03:13:29.381Z,21.20
2018-07-17T03:14:00.610Z,21.16
2018-07-17T03:14:31.859Z,21.16
2018-07-17T03:15:03.049Z,20.50
2018-07-17T03:15:34.277Z,21.17
2018-07-17T03:16:05.455Z,21.18
2018-07-17T03:16:36.627Z,21.19
2018-07-17T03:17:07.856Z,21.20
2018-07-17T03:17:39.077Z,21.20
2018-07-17T03:18:10.307Z,21.17
2018-07-17T03:18:41.574Z,21.15
2018-07-17T03:19:12.756Z,21.15
2018-07-17T03:19:43.933Z,21.16
2018-07-17T03:20:15.177Z,21.18
2018-07-17T03:20:46.418Z,21.19
2018-07-17T03:21:17.698Z,21.20
2018-07-17T03:21:48.879Z,21.22
2018-07-17T03:22:20.105Z,21.24
2018-07-17T03:22:51.277Z,21.26
2018-07-17T03:23:22.528Z,21.28
2018-07-17T03:23:53.764Z,21.25
2018-07-17T03:24:24.965Z,21.22
2018-07-17T03:24:56.159Z,21.20
2018-07-17T03:25:27.337Z,21.17
2018-07-17T03:25:58.567Z,21.17
2018-07-17T03:26:29.856Z,21.15
2018-07-17T03:27:01.038Z,21.16
2018-07-17T03:27:32.217Z,21.20
2018-07-17T03:28:03.392Z,21.27
2018-07-17T03:28:34.576Z,21.32
2018-07-17T03:29:05.920Z,21.39
2018-07-17T03:29:37.228Z,21.44
2018-07-17T03:30:08.438Z,21.48
2018-07-17T03:30:39.615Z,21.52
2018-07-17T03:31:10.827Z,21.53
2018-07-17T03:31:42.095Z,21.54
2018-07-17T03:32:13.269Z,21.48
2018-07-17T03:32:44.445Z,21.47
2018-07-17T03:33:15.631Z,21.44
2018-07-17T03:33:46.821Z,21.46
2018-07-17T03:34:17.992Z,21.50
2018-07-17T03:34:49.201Z,21.59
2018-07-17T03:35:20.368Z,21.63
2018-07-17T03:35:51.597Z,21.71
2018-07-17T03:36:22.794Z,21.77
2018-07-17T03:36:54.053Z,21.84
2018-07-17T03:37:25.250Z,21.90
2018-07-17T03:37:56.469Z,21.94
2018-07-17T03:38:27.649Z,21.89
2018-07-17T03:38:58.894Z,21.84
2018-07-17T03:39:30.076Z,21.75
2018-07-17T03:40:01.297Z,21.69
2018-07-17T03:40:32.525Z,21.61
2018-07-17T03:41:03.702Z,21.59
2018-07-17T03:41:34.877Z,21.56
2018-07-17T03:42:06.114Z,21.50
2018-07-17T03:42:37.341Z,21.49
2018-07-17T03:43:08.534Z,21.46
2018-07-17T03:43:39.715Z,21.43
2018-07-17T03:44:10.937Z,21.41
2018-07-17T03:44:42.152Z,21.38
2018-07-17T03:45:13.320Z,21.36
2018-07-17T03:45:44.520Z,21.33
2018-07-17T03:46:15.688Z,21.30
2018-07-17T03:46:46.856Z,21.28
2018-07-17T03:47:18.086Z,21.25
2018-07-17T03:47:49.333Z,21.25
2018-07-17T03:48:20.528Z,21.23
2018-07-17T03:48:51.750Z,21.22
2018-07-17T03:49:22.937Z,21.23
2018-07-17T03:49:54.436Z,21.23
2018-07-17T03:50:25.624Z,21.24
2018-07-17T03:50:56.838Z,21.25
2018-07-17T03:51:28.050Z,21.26
2018-07-17T03:51:59.217Z,21.28
2018-07-17T03:52:30.437Z,21.30
2018-07-17T03:53:01.617Z,21.33
2018-07-17T03:53:32.788Z,21.33
2018-07-17T03:54:03.965Z,21.34
2018-07-17T03:54:35.133Z,21.35
2018-07-17T03:55:06.363Z,21.36
2018-07-17T03:55:37.600Z,21.37
2018-07-17T03:56:08.776Z,21.43
2018-07-17T03:56:39.940Z,21.55
2018-07-17T03:57:11.144Z,21.72
2018-07-17T03:57:42.316Z,21.90
2018-07-17T03:58:13.499Z,22.11
2018-07-17T03:58:45.201Z,22.29
2018-07-17T03:59:16.396Z,22.45
2018-07-17T03:59:47.601Z,22.56
2018-07-17T04:00:18.822Z,22.64
2018-07-17T04:00:50.147Z,22.72
2018-07-17T04:01:21.357Z,22.82
2018-07-17T04:01:52.579Z,22.90
2018-07-17T04:02:23.753Z,22.98
2018-07-17T04:02:55.101Z,22.98
2018-07-17T04:03:26.349Z,22.94
2018-07-17T04:03:57.580Z,22.86
2018-07-17T04:04:28.806Z,22.75
2018-07-17T04:05:00.036Z,22.67
2018-07-17T04:05:31.210Z,22.59
2018-07-17T04:06:02.386Z,22.54
2018-07-17T04:06:33.587Z,22.46
2018-07-17T04:07:04.795Z,22.36
2018-07-17T04:07:36.004Z,22.29
2018-07-17T04:08:07.258Z,22.21
2018-07-17T04:08:38.459Z,22.17
2018-07-17T04:09:09.656Z,22.14
2018-07-17T04:09:40.876Z,22.13
2018-07-17T04:10:12.048Z,22.09
2018-07-17T04:10:43.273Z,22.07
2018-07-17T04:11:14.456Z,22.01
2018-07-17T04:11:45.798Z,21.97
2018-07-17T04:12:16.972Z,21.97
2018-07-17T04:12:48.265Z,21.93
2018-07-17T04:13:19.464Z,21.94
2018-07-17T04:13:50.652Z,21.94
2018-07-17T04:14:21.826Z,21.96
2018-07-17T04:14:53.093Z,21.96
2018-07-17T04:15:24.286Z,21.99
2018-07-17T04:15:55.456Z,22.01
2018-07-17T04:16:26.633Z,22.01
2018-07-17T04:16:57.869Z,22.03
2018-07-17T04:17:29.049Z,22.06
2018-07-17T04:18:00.224Z,22.09
2018-07-17T04:18:31.428Z,22.13
2018-07-17T04:19:02.603Z,22.14
2018-07-17T04:19:33.821Z,22.15
2018-07-17T04:20:05.006Z,22.15
2018-07-17T04:20:36.190Z,22.15
2018-07-17T04:21:07.366Z,22.15
2018-07-17T04:21:38.592Z,22.23
2018-07-17T04:22:09.773Z,22.35
2018-07-17T04:22:40.998Z,22.46
2018-07-17T04:23:12.181Z,22.60
2018-07-17T04:23:43.352Z,22.77
2018-07-17T04:24:14.520Z,22.94
2018-07-17T04:24:45.748Z,23.14
2018-07-17T04:25:16.920Z,23.30
2018-07-17T04:25:48.107Z,23.47
2018-07-17T04:26:19.284Z,23.62
2018-07-17T04:26:50.456Z,23.82
2018-07-17T04:27:21.631Z,23.97
2018-07-17T04:27:52.802Z,24.06
2018-07-17T04:28:24.030Z,24.13
2018-07-17T04:28:55.372Z,24.16
2018-07-17T04:29:26.549Z,24.24
2018-07-17T04:29:57.813Z,24.30
2018-07-17T04:30:29.050Z,24.40
2018-07-17T04:31:00.280Z,24.52
2018-07-17T04:31:31.549Z,24.62
2018-07-17T04:32:02.724Z,24.75
2018-07-17T04:32:33.896Z,24.82
2018-07-17T04:33:05.066Z,24.89
2018-07-17T04:33:36.240Z,24.89
2018-07-17T04:34:07.419Z,24.90
2018-07-17T04:34:38.612Z,24.93
2018-07-17T04:35:09.796Z,24.99
2018-07-17T04:35:40.973Z,25.08
2018-07-17T04:36:12.250Z,25.24
2018-07-17T04:36:43.437Z,25.47
2018-07-17T04:37:14.716Z,25.71
2018-07-17T04:37:45.897Z,25.87
2018-07-17T04:38:17.094Z,26.00
2018-07-17T04:38:48.350Z,26.12
2018-07-17T04:39:19.600Z,26.31
2018-07-17T04:39:50.820Z,26.55
2018-07-17T04:40:22.003Z,26.74
2018-07-17T04:40:53.191Z,26.94
2018-07-17T04:41:24.426Z,27.06
2018-07-17T04:41:55.609Z,27.12
2018-07-17T04:42:26.785Z,26.93
2018-07-17T04:42:58.124Z,26.98
2018-07-17T04:43:29.378Z,26.84
2018-07-17T04:44:00.564Z,26.69
2018-07-17T04:44:31.776Z,26.53
2018-07-17T04:45:02.956Z,26.35
2018-07-17T04:45:34.194Z,26.19
2018-07-17T04:46:05.392Z,26.07
2018-07-17T04:46:36.830Z,25.95
2018-07-17T04:47:08.020Z,25.86
2018-07-17T04:47:39.205Z,25.80
2018-07-17T04:48:10.398Z,25.74
2018-07-17T04:48:41.669Z,25.67
2018-07-17T04:49:14.556Z,25.63
2018-07-17T04:49:47.652Z,25.48
2018-07-17T04:50:18.840Z,25.44
2018-07-17T04:50:50.061Z,25.39
2018-07-17T04:51:21.343Z,25.32
2018-07-17T04:51:52.597Z,25.27
2018-07-17T04:52:23.803Z,25.14
2018-07-17T04:52:55.021Z,25.09
2018-07-17T04:53:26.214Z,25.08
2018-07-17T04:53:57.553Z,24.91
2018-07-17T04:54:28.724Z,24.69
2018-07-17T04:54:59.986Z,24.66
2018-07-17T04:55:31.269Z,24.54
2018-07-17T04:56:02.455Z,24.50
2018-07-17T04:56:33.649Z,24.60
2018-07-17T04:57:04.845Z,24.66
2018-07-17T04:57:36.029Z,24.79
2018-07-17T04:58:07.222Z,25.08
2018-07-17T04:58:38.456Z,25.28
2018-07-17T04:59:09.692Z,25.57
2018-07-17T04:59:40.918Z,25.94
2018-07-17T05:00:12.120Z,26.27
2018-07-17T05:00:43.401Z,26.60
2018-07-17T05:01:14.628Z,26.94
2018-07-17T05:01:45.891Z,27.24
2018-07-17T05:02:17.085Z,27.59
2018-07-17T05:02:48.427Z,27.91
2018-07-17T05:03:19.609Z,28.24
2018-07-17T05:03:50.805Z,28.33
2018-07-17T05:04:22.148Z,28.58
2018-07-17T05:04:53.386Z,28.50
2018-07-17T05:05:24.564Z,28.63
2018-07-17T05:05:55.829Z,28.58
2018-07-17T05:06:27.021Z,28.71
2018-07-17T05:06:58.200Z,28.84
2018-07-17T05:07:29.388Z,28.91
2018-07-17T05:08:00.782Z,29.18
2018-07-17T05:08:32.089Z,29.39
2018-07-17T05:09:03.321Z,29.49
2018-07-17T05:09:35.440Z,29.64
2018-07-17T05:10:06.681Z,29.74
2018-07-17T05:10:37.878Z,29.63
2018-07-17T05:11:09.062Z,29.69
2018-07-17T05:11:40.409Z,29.61
2018-07-17T05:12:12.357Z,29.61
2018-07-17T05:12:43.533Z,29.59
2018-07-17T05:13:14.716Z,29.73
2018-07-17T05:13:45.896Z,29.89
2018-07-17T05:14:17.089Z,30.06
2018-07-17T05:14:48.266Z,30.28
2018-07-17T05:15:19.468Z,30.48
2018-07-17T05:15:50.644Z,30.58
2018-07-17T05:16:21.883Z,30.64
2018-07-17T05:16:53.188Z,30.78
2018-07-17T05:17:24.383Z,30.75
2018-07-17T05:17:55.591Z,30.82
2018-07-17T05:18:26.772Z,30.87
2018-07-17T05:18:57.940Z,30.95
2018-07-17T05:19:29.177Z,31.12
2018-07-17T05:20:00.356Z,31.37
2018-07-17T05:20:31.532Z,31.65
2018-07-17T05:21:02.709Z,31.71
2018-07-17T05:21:33.928Z,31.65
2018-07-17T05:22:05.198Z,31.50
2018-07-17T05:22:36.951Z,31.59
2018-07-17T05:23:08.226Z,31.63
2018-07-17T05:23:39.419Z,31.77
2018-07-17T05:24:10.604Z,31.84
2018-07-17T05:24:41.788Z,32.01
2018-07-17T05:25:13.028Z,32.03
2018-07-17T05:25:44.266Z,32.09
2018-07-17T05:26:15.520Z,32.22
2018-07-17T05:26:46.936Z,32.36
2018-07-17T05:27:18.153Z,32.24
2018-07-17T05:27:49.429Z,32.13
2018-07-17T05:28:20.620Z,32.00
2018-07-17T05:28:51.864Z,32.00
2018-07-17T05:29:24.523Z,32.07
2018-07-17T05:29:55.724Z,32.00
2018-07-17T05:30:26.988Z,32.00
2018-07-17T05:30:58.177Z,32.03
2018-07-17T05:31:29.365Z,32.07
2018-07-17T05:32:00.548Z,32.10
2018-07-17T05:32:31.821Z,32.19
2018-07-17T05:33:03.073Z,32.27
2018-07-17T05:33:34.257Z,32.37
2018-07-17T05:34:05.509Z,32.48
2018-07-17T05:34:36.698Z,32.51
2018-07-17T05:35:07.965Z,32.58
2018-07-17T05:35:39.173Z,32.68
2018-07-17T05:36:10.353Z,32.79
2018-07-17T05:36:41.552Z,32.89
2018-07-17T05:37:13.868Z,32.95
2018-07-17T05:37:45.121Z,32.97
2018-07-17T05:38:16.322Z,32.97
2018-07-17T05:38:47.527Z,32.90
2018-07-17T05:39:18.709Z,32.75
2018-07-17T05:39:49.960Z,32.70
2018-07-17T05:40:21.161Z,32.31
2018-07-17T05:40:52.393Z,32.01
2018-07-17T05:41:23.656Z,31.88
2018-07-17T05:41:54.866Z,31.50
2018-07-17T05:42:26.059Z,31.39
2018-07-17T05:42:57.318Z,31.38
2018-07-17T05:43:28.502Z,31.42
2018-07-17T05:43:59.697Z,31.48
2018-07-17T05:44:30.920Z,31.51
2018-07-17T05:45:02.105Z,31.54
2018-07-17T05:45:33.344Z,31.53
2018-07-17T05:46:04.604Z,31.52
2018-07-17T05:46:35.891Z,31.57
2018-07-17T05:47:07.042Z,31.62
2018-07-17T05:47:38.301Z,31.65
2018-07-17T05:48:09.548Z,31.70
2018-07-17T05:48:40.733Z,31.71
2018-07-17T05:49:11.921Z,31.67
2018-07-17T05:49:43.103Z,31.67
2018-07-17T05:50:14.298Z,31.51
2018-07-17T05:50:45.462Z,31.14
2018-07-17T05:51:16.693Z,30.67
2018-07-17T05:51:47.913Z,30.16
2018-07-17T05:52:19.125Z,29.89
2018-07-17T05:52:50.334Z,29.83
2018-07-17T05:53:21.569Z,29.73
2018-07-17T05:53:52.810Z,29.73
2018-07-17T05:54:24.017Z,29.67
2018-07-17T05:54:55.221Z,29.67
2018-07-17T05:55:26.408Z,29.60
2018-07-17T05:55:57.618Z,29.43
2018-07-17T05:56:28.873Z,29.48
2018-07-17T05:57:00.053Z,29.57
2018-07-17T05:57:31.295Z,29.57
2018-07-17T05:58:03.293Z,29.60
2018-07-17T05:58:34.509Z,29.40
2018-07-17T05:59:05.750Z,29.34
2018-07-17T05:59:36.938Z,29.28
2018-07-17T06:00:09.154Z,29.31
2018-07-17T06:00:40.427Z,29.37
2018-07-17T06:01:11.631Z,29.41
2018-07-17T06:01:42.865Z,29.34
2018-07-17T06:02:14.058Z,29.31
2018-07-17T06:02:47.070Z,29.34
2018-07-17T06:03:18.383Z,29.32
2018-07-17T06:03:49.637Z,29.37
2018-07-17T06:04:21.589Z,29.35
2018-07-17T06:04:53.646Z,29.38
2018-07-17T06:05:24.842Z,29.29
2018-07-17T06:05:56.106Z,29.25
2018-07-17T06:06:27.645Z,29.26
2018-07-17T06:06:58.852Z,29.25
2018-07-17T06:07:30.043Z,29.37
2018-07-17T06:08:08.459Z,29.52
2018-07-17T06:08:40.692Z,29.45
2018-07-17T06:09:11.939Z,29.45
2018-07-17T06:09:43.228Z,29.55
2018-07-17T06:10:14.464Z,29.68
2018-07-17T06:10:47.636Z,29.65
2018-07-17T06:11:18.879Z,29.46
2018-07-17T06:11:50.656Z,29.39
2018-07-17T06:12:21.885Z,29.37
2018-07-17T06:12:53.093Z,29.40
2018-07-17T06:13:24.333Z,29.45
2018-07-17T06:13:55.896Z,29.49
2018-07-17T06:14:27.141Z,29.53
2018-07-17T06:14:59.410Z,29.60
2018-07-17T06:15:31.775Z,29.58
2018-07-17T06:16:03.001Z,29.64
2018-07-17T06:16:34.214Z,29.69
2018-07-17T06:17:06.134Z,29.73
2018-07-17T06:17:37.422Z,29.77
2018-07-17T06:18:08.714Z,29.58
2018-07-17T06:18:39.958Z,29.71
2018-07-17T06:19:12.412Z,29.80
2018-07-17T06:19:43.600Z,29.79
2018-07-17T06:20:14.780Z,29.66
2018-07-17T06:20:46.820Z,29.66
2018-07-17T06:21:18.308Z,29.65
2018-07-17T06:21:49.599Z,29.58
2018-07-17T06:22:20.854Z,29.47
2018-07-17T06:22:52.104Z,29.46
2018-07-17T06:23:23.305Z,29.46
2018-07-17T06:23:54.492Z,29.55
2018-07-17T06:24:25.759Z,29.55
2018-07-17T06:24:57.623Z,29.55
2018-07-17T06:25:28.848Z,29.56
2018-07-17T06:26:00.438Z,29.61
2018-07-17T06:26:32.516Z,29.59
2018-07-17T06:27:05.426Z,29.68
2018-07-17T06:27:36.617Z,29.60
2018-07-17T06:28:08.333Z,29.45
2018-07-17T06:28:39.530Z,29.32
2018-07-17T06:29:11.037Z,29.02
2018-07-17T06:29:42.253Z,29.23
2018-07-17T06:30:13.793Z,29.22
2018-07-17T06:30:45.872Z,29.12
2018-07-17T06:31:17.909Z,28.96
2018-07-17T06:31:49.541Z,28.87
2018-07-17T06:32:20.769Z,28.85
2018-07-17T06:32:52.017Z,28.81
2018-07-17T06:33:23.205Z,28.78
2018-07-17T06:33:55.118Z,28.77
2018-07-17T06:34:27.008Z,28.78
2018-07-17T06:34:58.836Z,28.88
2018-07-17T06:35:32.607Z,28.92
2018-07-17T06:36:03.820Z,28.96
2018-07-17T06:36:35.000Z,29.06
2018-07-17T06:37:06.256Z,29.11
2018-07-17T06:37:37.742Z,29.20
2018-07-17T06:38:08.936Z,29.26
2018-07-17T06:38:40.121Z,29.27
2018-07-17T06:39:11.320Z,29.32
2018-07-17T06:39:42.502Z,29.34
2018-07-17T06:40:13.694Z,29.28
2018-07-17T06:40:45.825Z,29.30
2018-07-17T06:41:17.000Z,29.30
2018-07-17T06:41:48.237Z,29.30
2018-07-17T06:42:19.502Z,29.31
2018-07-17T06:42:50.687Z,29.37